Pagrindinis puslapis
METAR-TAF:

METAR-TAF

Oro uostai :

Trondheimas, Norvegija

platuma: 63-28N, ilguma: 010-56E, Aukštis: 1 m

Dabartinis oras

Ataskaita buvo paskelbta 16 minutes, ne 13:50 UTC
Vėjas 2 kt nuo kintamojo kryptimis
Temperatūra 6°C
Drėgmė 93%
Slėgis 1001 hPa
Matomumas 10 km arba daugiau
Mažai debesys ne aukštis 1700 ft
Išsisklaidę debesys ne aukštis 2300 ft
Su prošvaistėmis ne aukštis 3900 ft

METAR: ENVA 291350Z VRB02KT 9999 FEW017 SCT023 BKN039 06/05 Q1001 TEMPO 23010KT SHRA RMK WIND 670FT 27007KT

Laikas: 15:06 (14:06 UTC)

Prognozė

Prognozė galioja nuo 29 metu 12 UTC su 30 metu 12 UTC
Vėjas 5 kt iš Rytų
Matomumas 10 km arba daugiau
Mažai debesys ne aukštis 2000 ft
Su prošvaistėmis ne aukštis 42000 ft
Laikinai
nuo 29 metu 12 UTC su 29 metu 24 UTC
Vėjas 10 kt iš Pietvakarių
Su prošvaistėmis ne aukštis 1000 ft
Išsisklaidę debesys ne aukštis 2000 ft, Liūtiniai kamuoliniai debesys.
lietus

TAF: ENVA 2912/3012 09005KT 9999 FEW020 BKN420 TEMPO 2912/2924 23010KT SHRA BKN010 SCT020CB

Orai ataskaitas ir orų prognozės (METAR, TAF).

turimą stotys yra geltonos ir raudonos taškus žemėlapyje.

Perkelti pele per norėdami pamatyti stoties vardą.

Tada spustelėkite, norėdami matyti oro stebėjimo ir prognozės.

Norėdami pakeisti žemėlapį: spustelėkite ant žalios mygtukų su juodo kryžiaus žemyn,; žalią mygtuką su brūkšneliu, jei norite nutolinti; arba žalių rodyklių gretimoms žemėlapius.


METAR-TAF: